sensor_id;sensor_type;location;lat;lon;timestamp;P1;durP1;ratioP1;P2;durP2;ratioP2
568;SDS011;269;48.884;9.192;2023-03-23T00:02:03;2.23;;;1.57;;
568;SDS011;269;48.884;9.192;2023-03-23T00:04:32;1.60;;;1.50;;
568;SDS011;269;48.884;9.192;2023-03-23T00:06:59;1.60;;;1.50;;
568;SDS011;269;48.884;9.192;2023-03-23T00:09:28;2.43;;;1.37;;
568;SDS011;269;48.884;9.192;2023-03-23T00:12:00;1.80;;;1.37;;
568;SDS011;269;48.884;9.192;2023-03-23T00:14:31;2.23;;;1.77;;
568;SDS011;269;48.884;9.192;2023-03-23T00:17:06;1.40;;;1.30;;
568;SDS011;269;48.884;9.192;2023-03-23T00:19:37;1.90;;;1.43;;
568;SDS011;269;48.884;9.192;2023-03-23T00:22:11;1.40;;;1.30;;
568;SDS011;269;48.884;9.192;2023-03-23T00:24:39;1.80;;;1.40;;
568;SDS011;269;48.884;9.192;2023-03-23T00:27:07;2.90;;;1.30;;
568;SDS011;269;48.884;9.192;2023-03-23T00:29:38;1.30;;;1.20;;
568;SDS011;269;48.884;9.192;2023-03-23T00:32:06;1.63;;;1.17;;
568;SDS011;269;48.884;9.192;2023-03-23T00:34:39;1.50;;;1.20;;
568;SDS011;269;48.884;9.192;2023-03-23T00:37:08;1.60;;;1.50;;
568;SDS011;269;48.884;9.192;2023-03-23T00:39:37;1.50;;;1.40;;
568;SDS011;269;48.884;9.192;2023-03-23T00:42:11;1.43;;;1.33;;
568;SDS011;269;48.884;9.192;2023-03-23T00:44:39;1.43;;;1.20;;
568;SDS011;269;48.884;9.192;2023-03-23T00:47:06;1.17;;;1.07;;
568;SDS011;269;48.884;9.192;2023-03-23T00:49:34;1.57;;;1.47;;
568;SDS011;269;48.884;9.192;2023-03-23T00:52:04;1.40;;;1.30;;
568;SDS011;269;48.884;9.192;2023-03-23T00:54:32;1.67;;;1.57;;
568;SDS011;269;48.884;9.192;2023-03-23T00:56:59;1.67;;;1.57;;
568;SDS011;269;48.884;9.192;2023-03-23T00:59:27;2.17;;;1.60;;
568;SDS011;269;48.884;9.192;2023-03-23T01:01:54;1.30;;;1.20;;
568;SDS011;269;48.884;9.192;2023-03-23T01:04:21;1.83;;;1.30;;
568;SDS011;269;48.884;9.192;2023-03-23T01:06:48;2.00;;;1.20;;
568;SDS011;269;48.884;9.192;2023-03-23T01:09:18;4.10;;;1.20;;
568;SDS011;269;48.884;9.192;2023-03-23T01:11:47;1.80;;;1.50;;
568;SDS011;269;48.884;9.192;2023-03-23T01:14:15;1.50;;;1.33;;
568;SDS011;269;48.884;9.192;2023-03-23T01:16:44;2.90;;;1.50;;
568;SDS011;269;48.884;9.192;2023-03-23T01:19:11;1.40;;;1.30;;
568;SDS011;269;48.884;9.192;2023-03-23T01:21:38;1.40;;;1.30;;
568;SDS011;269;48.884;9.192;2023-03-23T01:24:06;1.60;;;1.47;;
568;SDS011;269;48.884;9.192;2023-03-23T01:26:35;1.50;;;1.40;;
568;SDS011;269;48.884;9.192;2023-03-23T01:29:02;1.43;;;1.33;;
568;SDS011;269;48.884;9.192;2023-03-23T01:31:29;1.40;;;1.20;;
568;SDS011;269;48.884;9.192;2023-03-23T01:33:57;1.50;;;1.40;;
568;SDS011;269;48.884;9.192;2023-03-23T01:36:24;2.20;;;1.33;;
568;SDS011;269;48.884;9.192;2023-03-23T01:38:54;1.30;;;1.20;;
568;SDS011;269;48.884;9.192;2023-03-23T01:41:23;2.00;;;1.27;;
568;SDS011;269;48.884;9.192;2023-03-23T01:43:55;1.40;;;1.30;;
568;SDS011;269;48.884;9.192;2023-03-23T01:46:28;1.60;;;1.50;;
568;SDS011;269;48.884;9.192;2023-03-23T01:48:56;2.97;;;1.50;;
568;SDS011;269;48.884;9.192;2023-03-23T01:51:32;2.10;;;1.30;;
568;SDS011;269;48.884;9.192;2023-03-23T01:54:00;1.70;;;1.10;;
568;SDS011;269;48.884;9.192;2023-03-23T01:56:31;2.00;;;1.30;;
568;SDS011;269;48.884;9.192;2023-03-23T01:59:08;3.83;;;1.57;;
568;SDS011;269;48.884;9.192;2023-03-23T02:01:36;3.27;;;2.00;;
568;SDS011;269;48.884;9.192;2023-03-23T02:04:06;4.00;;;2.40;;
568;SDS011;269;48.884;9.192;2023-03-23T02:06:34;2.97;;;2.47;;
568;SDS011;269;48.884;9.192;2023-03-23T02:09:01;3.27;;;2.50;;
568;SDS011;269;48.884;9.192;2023-03-23T02:11:29;2.60;;;2.00;;
568;SDS011;269;48.884;9.192;2023-03-23T02:13:56;2.17;;;1.97;;
568;SDS011;269;48.884;9.192;2023-03-23T02:16:30;3.97;;;2.30;;
568;SDS011;269;48.884;9.192;2023-03-23T02:19:07;2.03;;;1.83;;
568;SDS011;269;48.884;9.192;2023-03-23T02:22:02;2.80;;;1.70;;
568;SDS011;269;48.884;9.192;2023-03-23T02:24:55;2.60;;;2.33;;
568;SDS011;269;48.884;9.192;2023-03-23T02:27:36;2.13;;;1.90;;
568;SDS011;269;48.884;9.192;2023-03-23T02:30:21;2.40;;;1.60;;
568;SDS011;269;48.884;9.192;2023-03-23T02:36:11;1.90;;;1.70;;
568;SDS011;269;48.884;9.192;2023-03-23T02:38:44;2.07;;;1.90;;
568;SDS011;269;48.884;9.192;2023-03-23T02:41:19;2.30;;;2.10;;
568;SDS011;269;48.884;9.192;2023-03-23T02:43:50;1.70;;;1.60;;
568;SDS011;269;48.884;9.192;2023-03-23T02:46:19;2.40;;;1.90;;
568;SDS011;269;48.884;9.192;2023-03-23T02:48:48;2.03;;;1.47;;
568;SDS011;269;48.884;9.192;2023-03-23T02:51:18;1.60;;;1.50;;
568;SDS011;269;48.884;9.192;2023-03-23T02:53:47;1.60;;;1.50;;
568;SDS011;269;48.884;9.192;2023-03-23T02:56:17;2.10;;;1.90;;
568;SDS011;269;48.884;9.192;2023-03-23T02:58:45;2.20;;;1.90;;
568;SDS011;269;48.884;9.192;2023-03-23T03:01:16;1.83;;;1.70;;
568;SDS011;269;48.884;9.192;2023-03-23T03:04:21;2.90;;;1.90;;
568;SDS011;269;48.884;9.192;2023-03-23T03:06:54;1.70;;;1.60;;
568;SDS011;269;48.884;9.192;2023-03-23T03:09:38;1.87;;;1.43;;
568;SDS011;269;48.884;9.192;2023-03-23T03:12:12;2.03;;;1.50;;
568;SDS011;269;48.884;9.192;2023-03-23T03:14:48;1.80;;;1.70;;
568;SDS011;269;48.884;9.192;2023-03-23T03:17:23;1.97;;;1.77;;
568;SDS011;269;48.884;9.192;2023-03-23T03:19:52;2.87;;;2.00;;
568;SDS011;269;48.884;9.192;2023-03-23T03:22:24;2.30;;;2.10;;
568;SDS011;269;48.884;9.192;2023-03-23T03:24:56;2.70;;;2.47;;
568;SDS011;269;48.884;9.192;2023-03-23T03:27:24;4.47;;;2.70;;
568;SDS011;269;48.884;9.192;2023-03-23T03:29:53;4.87;;;2.60;;
568;SDS011;269;48.884;9.192;2023-03-23T03:32:24;2.17;;;2.00;;
568;SDS011;269;48.884;9.192;2023-03-23T03:34:58;2.77;;;2.40;;
568;SDS011;269;48.884;9.192;2023-03-23T03:37:26;1.90;;;1.80;;
568;SDS011;269;48.884;9.192;2023-03-23T03:40:00;2.23;;;2.10;;
568;SDS011;269;48.884;9.192;2023-03-23T03:42:28;1.90;;;1.70;;
568;SDS011;269;48.884;9.192;2023-03-23T03:44:56;2.70;;;2.17;;
568;SDS011;269;48.884;9.192;2023-03-23T03:47:23;2.23;;;1.90;;
568;SDS011;269;48.884;9.192;2023-03-23T03:49:50;2.63;;;1.97;;
568;SDS011;269;48.884;9.192;2023-03-23T03:52:17;1.83;;;1.70;;
568;SDS011;269;48.884;9.192;2023-03-23T03:54:44;2.47;;;1.90;;
568;SDS011;269;48.884;9.192;2023-03-23T03:57:13;2.13;;;1.50;;
568;SDS011;269;48.884;9.192;2023-03-23T03:59:40;2.10;;;1.90;;
568;SDS011;269;48.884;9.192;2023-03-23T04:02:07;2.90;;;1.90;;
568;SDS011;269;48.884;9.192;2023-03-23T04:04:34;3.50;;;2.10;;
568;SDS011;269;48.884;9.192;2023-03-23T04:07:01;2.17;;;1.83;;
568;SDS011;269;48.884;9.192;2023-03-23T04:09:28;2.13;;;1.93;;
568;SDS011;269;48.884;9.192;2023-03-23T04:11:56;1.90;;;1.80;;
568;SDS011;269;48.884;9.192;2023-03-23T04:14:24;1.90;;;1.73;;
568;SDS011;269;48.884;9.192;2023-03-23T04:16:52;2.60;;;1.63;;
568;SDS011;269;48.884;9.192;2023-03-23T04:19:22;2.30;;;1.90;;
568;SDS011;269;48.884;9.192;2023-03-23T04:21:49;2.13;;;1.73;;
568;SDS011;269;48.884;9.192;2023-03-23T04:24:16;1.50;;;1.40;;
568;SDS011;269;48.884;9.192;2023-03-23T04:26:46;1.93;;;1.70;;
568;SDS011;269;48.884;9.192;2023-03-23T04:29:13;1.80;;;1.70;;
568;SDS011;269;48.884;9.192;2023-03-23T04:31:42;1.60;;;1.50;;
568;SDS011;269;48.884;9.192;2023-03-23T04:34:10;2.67;;;1.60;;
568;SDS011;269;48.884;9.192;2023-03-23T04:36:38;1.53;;;1.43;;
568;SDS011;269;48.884;9.192;2023-03-23T04:39:06;1.60;;;1.50;;
568;SDS011;269;48.884;9.192;2023-03-23T04:41:35;1.70;;;1.60;;
568;SDS011;269;48.884;9.192;2023-03-23T04:44:03;2.33;;;2.10;;
568;SDS011;269;48.884;9.192;2023-03-23T04:46:31;2.47;;;2.27;;
568;SDS011;269;48.884;9.192;2023-03-23T04:48:59;1.70;;;1.60;;
568;SDS011;269;48.884;9.192;2023-03-23T04:51:28;2.03;;;1.67;;
568;SDS011;269;48.884;9.192;2023-03-23T04:53:56;1.80;;;1.70;;
568;SDS011;269;48.884;9.192;2023-03-23T04:56:23;1.80;;;1.70;;
568;SDS011;269;48.884;9.192;2023-03-23T04:58:50;1.70;;;1.60;;
568;SDS011;269;48.884;9.192;2023-03-23T05:01:17;3.10;;;1.70;;
568;SDS011;269;48.884;9.192;2023-03-23T05:03:45;2.40;;;1.80;;
568;SDS011;269;48.884;9.192;2023-03-23T05:06:13;3.67;;;1.80;;
568;SDS011;269;48.884;9.192;2023-03-23T05:08:40;1.80;;;1.70;;
568;SDS011;269;48.884;9.192;2023-03-23T05:11:07;2.00;;;1.90;;
568;SDS011;269;48.884;9.192;2023-03-23T05:13:34;2.17;;;1.97;;
568;SDS011;269;48.884;9.192;2023-03-23T05:16:05;2.67;;;1.90;;
568;SDS011;269;48.884;9.192;2023-03-23T05:18:32;2.43;;;2.20;;
568;SDS011;269;48.884;9.192;2023-03-23T05:21:00;2.10;;;1.93;;
568;SDS011;269;48.884;9.192;2023-03-23T05:23:29;3.13;;;2.00;;
568;SDS011;269;48.884;9.192;2023-03-23T05:25:59;1.80;;;1.70;;
568;SDS011;269;48.884;9.192;2023-03-23T05:28:28;2.33;;;2.13;;
568;SDS011;269;48.884;9.192;2023-03-23T05:30:55;2.27;;;2.07;;
568;SDS011;269;48.884;9.192;2023-03-23T05:33:22;2.13;;;2.00;;
568;SDS011;269;48.884;9.192;2023-03-23T05:35:51;3.57;;;1.90;;
568;SDS011;269;48.884;9.192;2023-03-23T05:38:18;3.17;;;2.60;;
568;SDS011;269;48.884;9.192;2023-03-23T05:40:46;2.30;;;2.07;;
568;SDS011;269;48.884;9.192;2023-03-23T05:43:14;2.13;;;1.50;;
568;SDS011;269;48.884;9.192;2023-03-23T05:45:41;2.03;;;1.83;;
568;SDS011;269;48.884;9.192;2023-03-23T05:48:08;1.90;;;1.70;;
568;SDS011;269;48.884;9.192;2023-03-23T05:50:35;2.10;;;1.63;;
568;SDS011;269;48.884;9.192;2023-03-23T05:53:02;1.63;;;1.53;;
568;SDS011;269;48.884;9.192;2023-03-23T05:55:29;2.17;;;1.63;;
568;SDS011;269;48.884;9.192;2023-03-23T05:57:58;1.90;;;1.80;;
568;SDS011;269;48.884;9.192;2023-03-23T06:00:25;2.40;;;1.40;;
568;SDS011;269;48.884;9.192;2023-03-23T06:02:55;4.13;;;1.40;;
568;SDS011;269;48.884;9.192;2023-03-23T06:05:23;3.80;;;2.00;;
568;SDS011;269;48.884;9.192;2023-03-23T06:07:51;1.63;;;1.53;;
568;SDS011;269;48.884;9.192;2023-03-23T06:10:18;2.20;;;1.67;;
568;SDS011;269;48.884;9.192;2023-03-23T06:12:45;1.77;;;1.67;;
568;SDS011;269;48.884;9.192;2023-03-23T06:15:14;2.43;;;1.53;;
568;SDS011;269;48.884;9.192;2023-03-23T06:17:41;1.60;;;1.50;;
568;SDS011;269;48.884;9.192;2023-03-23T06:20:09;2.13;;;1.83;;
568;SDS011;269;48.884;9.192;2023-03-23T06:22:37;2.20;;;2.00;;
568;SDS011;269;48.884;9.192;2023-03-23T06:25:07;2.03;;;1.83;;
568;SDS011;269;48.884;9.192;2023-03-23T06:27:36;2.50;;;1.93;;
568;SDS011;269;48.884;9.192;2023-03-23T06:30:04;2.50;;;1.47;;
568;SDS011;269;48.884;9.192;2023-03-23T06:32:33;2.23;;;1.77;;
568;SDS011;269;48.884;9.192;2023-03-23T06:35:01;1.90;;;1.70;;
568;SDS011;269;48.884;9.192;2023-03-23T06:37:28;2.90;;;1.50;;
568;SDS011;269;48.884;9.192;2023-03-23T06:39:56;1.77;;;1.63;;
568;SDS011;269;48.884;9.192;2023-03-23T06:42:24;2.10;;;2.00;;
568;SDS011;269;48.884;9.192;2023-03-23T06:44:51;2.30;;;1.70;;
568;SDS011;269;48.884;9.192;2023-03-23T06:47:21;2.27;;;1.90;;
568;SDS011;269;48.884;9.192;2023-03-23T06:49:50;2.13;;;1.70;;
568;SDS011;269;48.884;9.192;2023-03-23T06:52:17;2.23;;;1.60;;
568;SDS011;269;48.884;9.192;2023-03-23T06:54:45;2.23;;;1.70;;
568;SDS011;269;48.884;9.192;2023-03-23T06:57:12;2.00;;;1.70;;
568;SDS011;269;48.884;9.192;2023-03-23T06:59:39;3.33;;;1.93;;
568;SDS011;269;48.884;9.192;2023-03-23T07:02:07;2.17;;;1.90;;
568;SDS011;269;48.884;9.192;2023-03-23T07:04:35;3.07;;;2.10;;
568;SDS011;269;48.884;9.192;2023-03-23T07:07:04;4.80;;;2.10;;
568;SDS011;269;48.884;9.192;2023-03-23T07:09:31;1.90;;;1.70;;
568;SDS011;269;48.884;9.192;2023-03-23T07:11:58;3.57;;;1.83;;
568;SDS011;269;48.884;9.192;2023-03-23T07:14:26;2.97;;;2.07;;
568;SDS011;269;48.884;9.192;2023-03-23T07:16:53;2.10;;;1.77;;
568;SDS011;269;48.884;9.192;2023-03-23T07:19:20;6.57;;;2.00;;
568;SDS011;269;48.884;9.192;2023-03-23T07:21:47;4.13;;;1.87;;
568;SDS011;269;48.884;9.192;2023-03-23T07:24:16;4.53;;;2.10;;
568;SDS011;269;48.884;9.192;2023-03-23T07:26:44;2.17;;;1.97;;
568;SDS011;269;48.884;9.192;2023-03-23T07:29:11;2.37;;;2.17;;
568;SDS011;269;48.884;9.192;2023-03-23T07:31:38;2.80;;;1.50;;
568;SDS011;269;48.884;9.192;2023-03-23T07:34:05;2.10;;;1.97;;
568;SDS011;269;48.884;9.192;2023-03-23T07:36:32;3.20;;;2.17;;
568;SDS011;269;48.884;9.192;2023-03-23T07:39:02;2.00;;;1.90;;
568;SDS011;269;48.884;9.192;2023-03-23T07:41:33;4.43;;;2.10;;
568;SDS011;269;48.884;9.192;2023-03-23T07:44:00;3.20;;;2.23;;
568;SDS011;269;48.884;9.192;2023-03-23T07:46:28;2.63;;;2.43;;
568;SDS011;269;48.884;9.192;2023-03-23T07:48:55;2.60;;;2.27;;
568;SDS011;269;48.884;9.192;2023-03-23T07:51:22;2.23;;;2.00;;
568;SDS011;269;48.884;9.192;2023-03-23T07:53:50;3.30;;;2.23;;
568;SDS011;269;48.884;9.192;2023-03-23T07:56:17;5.20;;;2.30;;
568;SDS011;269;48.884;9.192;2023-03-23T07:58:49;2.50;;;2.30;;
568;SDS011;269;48.884;9.192;2023-03-23T08:01:16;2.60;;;2.40;;
568;SDS011;269;48.884;9.192;2023-03-23T08:03:43;5.63;;;2.53;;
568;SDS011;269;48.884;9.192;2023-03-23T08:06:10;2.30;;;1.93;;
568;SDS011;269;48.884;9.192;2023-03-23T08:08:37;4.47;;;2.20;;
568;SDS011;269;48.884;9.192;2023-03-23T08:11:05;2.47;;;2.07;;
568;SDS011;269;48.884;9.192;2023-03-23T08:13:32;3.27;;;1.70;;
568;SDS011;269;48.884;9.192;2023-03-23T08:16:02;2.30;;;1.80;;
568;SDS011;269;48.884;9.192;2023-03-23T08:18:29;2.07;;;1.87;;
568;SDS011;269;48.884;9.192;2023-03-23T08:20:57;1.80;;;1.70;;
568;SDS011;269;48.884;9.192;2023-03-23T08:23:24;2.23;;;1.70;;
568;SDS011;269;48.884;9.192;2023-03-23T08:25:52;1.90;;;1.57;;
568;SDS011;269;48.884;9.192;2023-03-23T08:28:20;2.27;;;1.90;;
568;SDS011;269;48.884;9.192;2023-03-23T08:30:46;3.30;;;2.00;;
568;SDS011;269;48.884;9.192;2023-03-23T08:33:15;6.13;;;2.17;;
568;SDS011;269;48.884;9.192;2023-03-23T08:35:43;2.40;;;1.90;;
568;SDS011;269;48.884;9.192;2023-03-23T08:38:10;2.33;;;1.90;;
568;SDS011;269;48.884;9.192;2023-03-23T08:40:38;2.00;;;1.80;;
568;SDS011;269;48.884;9.192;2023-03-23T08:43:05;3.43;;;2.20;;
568;SDS011;269;48.884;9.192;2023-03-23T08:45:32;2.30;;;1.90;;
568;SDS011;269;48.884;9.192;2023-03-23T08:47:59;1.90;;;1.80;;
568;SDS011;269;48.884;9.192;2023-03-23T08:50:28;2.07;;;1.87;;
568;SDS011;269;48.884;9.192;2023-03-23T08:52:56;2.30;;;2.10;;
568;SDS011;269;48.884;9.192;2023-03-23T08:55:23;3.67;;;1.87;;
568;SDS011;269;48.884;9.192;2023-03-23T08:57:51;3.33;;;2.13;;
568;SDS011;269;48.884;9.192;2023-03-23T09:00:19;2.90;;;1.90;;
568;SDS011;269;48.884;9.192;2023-03-23T09:02:50;2.40;;;2.00;;
568;SDS011;269;48.884;9.192;2023-03-23T09:05:19;2.77;;;2.03;;
568;SDS011;269;48.884;9.192;2023-03-23T09:07:51;2.23;;;2.10;;
568;SDS011;269;48.884;9.192;2023-03-23T09:10:20;1.80;;;1.70;;
568;SDS011;269;48.884;9.192;2023-03-23T09:12:51;2.77;;;2.17;;
568;SDS011;269;48.884;9.192;2023-03-23T09:15:20;2.53;;;2.13;;
568;SDS011;269;48.884;9.192;2023-03-23T09:17:48;2.77;;;2.00;;
568;SDS011;269;48.884;9.192;2023-03-23T09:20:20;2.30;;;2.10;;
568;SDS011;269;48.884;9.192;2023-03-23T09:22:50;2.90;;;2.10;;
568;SDS011;269;48.884;9.192;2023-03-23T09:25:22;3.00;;;2.00;;
568;SDS011;269;48.884;9.192;2023-03-23T09:27:53;2.97;;;1.93;;
568;SDS011;269;48.884;9.192;2023-03-23T09:30:22;2.73;;;2.20;;
568;SDS011;269;48.884;9.192;2023-03-23T09:32:51;2.33;;;2.13;;
568;SDS011;269;48.884;9.192;2023-03-23T09:35:20;3.60;;;2.70;;
568;SDS011;269;48.884;9.192;2023-03-23T09:37:48;3.53;;;2.10;;
568;SDS011;269;48.884;9.192;2023-03-23T09:40:18;2.50;;;1.90;;
568;SDS011;269;48.884;9.192;2023-03-23T09:42:56;2.00;;;1.90;;
568;SDS011;269;48.884;9.192;2023-03-23T09:45:32;3.53;;;2.10;;
568;SDS011;269;48.884;9.192;2023-03-23T09:48:08;3.23;;;2.33;;
568;SDS011;269;48.884;9.192;2023-03-23T09:50:48;3.00;;;2.27;;
568;SDS011;269;48.884;9.192;2023-03-23T09:53:21;1.93;;;1.83;;
568;SDS011;269;48.884;9.192;2023-03-23T09:55:55;2.37;;;2.13;;
568;SDS011;269;48.884;9.192;2023-03-23T09:58:24;2.37;;;2.17;;
568;SDS011;269;48.884;9.192;2023-03-23T10:00:57;1.90;;;1.80;;
568;SDS011;269;48.884;9.192;2023-03-23T10:03:30;2.30;;;1.83;;
568;SDS011;269;48.884;9.192;2023-03-23T10:06:02;2.23;;;1.90;;
568;SDS011;269;48.884;9.192;2023-03-23T10:08:30;4.13;;;1.50;;
568;SDS011;269;48.884;9.192;2023-03-23T10:11:02;1.63;;;1.53;;
568;SDS011;269;48.884;9.192;2023-03-23T10:13:37;1.70;;;1.53;;
568;SDS011;269;48.884;9.192;2023-03-23T10:16:19;3.37;;;1.47;;
568;SDS011;269;48.884;9.192;2023-03-23T10:18:52;3.43;;;1.53;;
568;SDS011;269;48.884;9.192;2023-03-23T10:21:24;1.60;;;1.50;;
568;SDS011;269;48.884;9.192;2023-03-23T10:23:56;2.10;;;1.90;;
568;SDS011;269;48.884;9.192;2023-03-23T10:26:30;2.10;;;1.60;;
568;SDS011;269;48.884;9.192;2023-03-23T10:29:08;1.33;;;1.23;;
568;SDS011;269;48.884;9.192;2023-03-23T10:31:43;2.27;;;1.50;;
568;SDS011;269;48.884;9.192;2023-03-23T10:34:14;1.63;;;1.53;;
568;SDS011;269;48.884;9.192;2023-03-23T10:36:51;1.80;;;1.70;;
568;SDS011;269;48.884;9.192;2023-03-23T10:39:24;2.03;;;1.57;;
568;SDS011;269;48.884;9.192;2023-03-23T10:41:56;1.77;;;1.40;;
568;SDS011;269;48.884;9.192;2023-03-23T10:44:32;2.20;;;1.50;;
568;SDS011;269;48.884;9.192;2023-03-23T10:47:01;1.73;;;1.63;;
568;SDS011;269;48.884;9.192;2023-03-23T10:49:31;1.70;;;1.60;;
568;SDS011;269;48.884;9.192;2023-03-23T10:52:06;2.03;;;1.50;;
568;SDS011;269;48.884;9.192;2023-03-23T10:54:46;1.50;;;1.40;;
568;SDS011;269;48.884;9.192;2023-03-23T10:57:22;1.70;;;1.60;;
568;SDS011;269;48.884;9.192;2023-03-23T10:59:50;1.73;;;1.63;;
568;SDS011;269;48.884;9.192;2023-03-23T11:02:18;2.17;;;1.60;;
568;SDS011;269;48.884;9.192;2023-03-23T11:04:57;1.33;;;1.23;;
568;SDS011;269;48.884;9.192;2023-03-23T11:07:28;4.20;;;1.57;;
568;SDS011;269;48.884;9.192;2023-03-23T11:10:04;1.57;;;1.47;;
568;SDS011;269;48.884;9.192;2023-03-23T11:12:36;1.40;;;1.30;;
568;SDS011;269;48.884;9.192;2023-03-23T11:15:09;1.67;;;1.40;;
568;SDS011;269;48.884;9.192;2023-03-23T11:17:54;1.50;;;1.40;;
568;SDS011;269;48.884;9.192;2023-03-23T11:20:22;1.70;;;1.60;;
568;SDS011;269;48.884;9.192;2023-03-23T11:22:49;2.03;;;1.90;;
568;SDS011;269;48.884;9.192;2023-03-23T11:25:16;1.83;;;1.70;;
568;SDS011;269;48.884;9.192;2023-03-23T11:27:45;1.50;;;1.40;;
568;SDS011;269;48.884;9.192;2023-03-23T11:30:18;1.40;;;1.30;;
568;SDS011;269;48.884;9.192;2023-03-23T11:32:49;1.63;;;1.20;;
568;SDS011;269;48.884;9.192;2023-03-23T11:35:19;2.37;;;2.00;;
568;SDS011;269;48.884;9.192;2023-03-23T11:37:48;1.83;;;1.50;;
568;SDS011;269;48.884;9.192;2023-03-23T11:40:18;1.50;;;1.40;;
568;SDS011;269;48.884;9.192;2023-03-23T11:42:49;1.70;;;1.60;;
568;SDS011;269;48.884;9.192;2023-03-23T11:45:25;2.20;;;1.87;;
568;SDS011;269;48.884;9.192;2023-03-23T11:47:59;1.73;;;1.30;;
568;SDS011;269;48.884;9.192;2023-03-23T11:50:36;3.20;;;1.80;;
568;SDS011;269;48.884;9.192;2023-03-23T11:53:12;2.03;;;1.87;;
568;SDS011;269;48.884;9.192;2023-03-23T11:55:51;3.13;;;1.70;;
568;SDS011;269;48.884;9.192;2023-03-23T11:58:26;2.80;;;1.40;;
568;SDS011;269;48.884;9.192;2023-03-23T12:00:58;2.80;;;1.90;;
568;SDS011;269;48.884;9.192;2023-03-23T12:03:36;1.43;;;1.33;;
568;SDS011;269;48.884;9.192;2023-03-23T12:06:19;2.00;;;1.53;;
568;SDS011;269;48.884;9.192;2023-03-23T12:08:58;2.33;;;2.00;;
568;SDS011;269;48.884;9.192;2023-03-23T12:11:37;3.57;;;1.80;;
568;SDS011;269;48.884;9.192;2023-03-23T12:14:15;2.27;;;1.70;;
568;SDS011;269;48.884;9.192;2023-03-23T12:16:50;1.60;;;1.50;;
568;SDS011;269;48.884;9.192;2023-03-23T12:19:27;1.77;;;1.40;;
568;SDS011;269;48.884;9.192;2023-03-23T12:22:05;1.83;;;1.60;;
568;SDS011;269;48.884;9.192;2023-03-23T12:24:43;2.80;;;1.90;;
568;SDS011;269;48.884;9.192;2023-03-23T12:27:21;2.07;;;1.83;;
568;SDS011;269;48.884;9.192;2023-03-23T12:30:04;2.13;;;1.80;;
568;SDS011;269;48.884;9.192;2023-03-23T12:32:50;2.10;;;1.90;;
568;SDS011;269;48.884;9.192;2023-03-23T12:35:32;2.53;;;2.00;;
568;SDS011;269;48.884;9.192;2023-03-23T12:38:12;1.70;;;1.60;;
568;SDS011;269;48.884;9.192;2023-03-23T12:40:58;3.13;;;2.20;;
568;SDS011;269;48.884;9.192;2023-03-23T12:43:34;2.37;;;1.90;;
568;SDS011;269;48.884;9.192;2023-03-23T12:46:10;2.60;;;2.00;;
568;SDS011;269;48.884;9.192;2023-03-23T12:48:45;3.23;;;1.80;;
568;SDS011;269;48.884;9.192;2023-03-23T12:51:17;1.90;;;1.70;;
568;SDS011;269;48.884;9.192;2023-03-23T12:53:52;1.93;;;1.73;;
568;SDS011;269;48.884;9.192;2023-03-23T12:56:24;1.90;;;1.80;;
568;SDS011;269;48.884;9.192;2023-03-23T12:58:59;2.40;;;2.03;;
568;SDS011;269;48.884;9.192;2023-03-23T13:01:40;2.30;;;2.10;;
568;SDS011;269;48.884;9.192;2023-03-23T13:04:10;2.40;;;1.70;;
568;SDS011;269;48.884;9.192;2023-03-23T13:06:41;2.77;;;2.00;;
568;SDS011;269;48.884;9.192;2023-03-23T13:09:11;2.93;;;2.27;;
568;SDS011;269;48.884;9.192;2023-03-23T13:11:42;2.10;;;2.00;;
568;SDS011;269;48.884;9.192;2023-03-23T13:14:15;2.57;;;2.00;;
568;SDS011;269;48.884;9.192;2023-03-23T13:16:55;4.20;;;1.90;;
568;SDS011;269;48.884;9.192;2023-03-23T13:19:29;4.53;;;2.40;;
568;SDS011;269;48.884;9.192;2023-03-23T13:22:02;2.73;;;2.03;;
568;SDS011;269;48.884;9.192;2023-03-23T13:24:33;3.00;;;2.40;;
568;SDS011;269;48.884;9.192;2023-03-23T13:27:17;3.00;;;2.10;;
568;SDS011;269;48.884;9.192;2023-03-23T13:29:49;2.50;;;2.30;;
568;SDS011;269;48.884;9.192;2023-03-23T13:32:18;2.37;;;2.17;;
568;SDS011;269;48.884;9.192;2023-03-23T13:34:46;2.60;;;2.20;;
568;SDS011;269;48.884;9.192;2023-03-23T13:37:19;2.30;;;2.10;;
568;SDS011;269;48.884;9.192;2023-03-23T13:39:49;2.40;;;2.20;;
568;SDS011;269;48.884;9.192;2023-03-23T13:42:21;2.93;;;2.53;;
568;SDS011;269;48.884;9.192;2023-03-23T13:47:48;2.40;;;2.20;;
568;SDS011;269;48.884;9.192;2023-03-23T13:50:25;2.60;;;2.03;;
568;SDS011;269;48.884;9.192;2023-03-23T13:52:58;2.63;;;2.27;;
568;SDS011;269;48.884;9.192;2023-03-23T13:55:41;2.77;;;2.57;;
568;SDS011;269;48.884;9.192;2023-03-23T13:58:24;2.63;;;2.43;;
568;SDS011;269;48.884;9.192;2023-03-23T14:01:08;2.23;;;2.13;;
568;SDS011;269;48.884;9.192;2023-03-23T14:03:43;2.83;;;2.63;;
568;SDS011;269;48.884;9.192;2023-03-23T14:06:16;2.97;;;2.10;;
568;SDS011;269;48.884;9.192;2023-03-23T14:08:47;2.70;;;2.43;;
568;SDS011;269;48.884;9.192;2023-03-23T14:11:18;2.40;;;2.20;;
568;SDS011;269;48.884;9.192;2023-03-23T14:13:51;3.27;;;2.33;;
568;SDS011;269;48.884;9.192;2023-03-23T14:16:29;2.63;;;2.43;;
568;SDS011;269;48.884;9.192;2023-03-23T14:19:03;3.13;;;2.77;;
568;SDS011;269;48.884;9.192;2023-03-23T14:21:40;2.40;;;2.17;;
568;SDS011;269;48.884;9.192;2023-03-23T14:24:09;3.10;;;2.30;;
568;SDS011;269;48.884;9.192;2023-03-23T14:26:37;2.73;;;2.20;;
568;SDS011;269;48.884;9.192;2023-03-23T14:29:05;2.43;;;2.23;;
568;SDS011;269;48.884;9.192;2023-03-23T14:31:34;4.50;;;2.53;;
568;SDS011;269;48.884;9.192;2023-03-23T14:34:04;2.87;;;2.47;;
568;SDS011;269;48.884;9.192;2023-03-23T14:36:40;2.43;;;2.23;;
568;SDS011;269;48.884;9.192;2023-03-23T14:39:13;5.43;;;2.63;;
568;SDS011;269;48.884;9.192;2023-03-23T14:41:44;2.50;;;2.20;;
568;SDS011;269;48.884;9.192;2023-03-23T14:44:12;2.90;;;1.90;;
568;SDS011;269;48.884;9.192;2023-03-23T14:46:43;3.37;;;2.10;;
568;SDS011;269;48.884;9.192;2023-03-23T14:49:14;3.67;;;2.07;;
568;SDS011;269;48.884;9.192;2023-03-23T14:51:47;3.00;;;2.63;;
568;SDS011;269;48.884;9.192;2023-03-23T14:54:19;2.83;;;2.47;;
568;SDS011;269;48.884;9.192;2023-03-23T14:56:49;2.83;;;2.27;;
568;SDS011;269;48.884;9.192;2023-03-23T14:59:16;3.90;;;2.00;;
568;SDS011;269;48.884;9.192;2023-03-23T15:01:44;5.17;;;2.73;;
568;SDS011;269;48.884;9.192;2023-03-23T15:04:15;4.37;;;2.00;;
568;SDS011;269;48.884;9.192;2023-03-23T15:06:45;3.60;;;2.23;;
568;SDS011;269;48.884;9.192;2023-03-23T15:09:16;2.03;;;1.83;;
568;SDS011;269;48.884;9.192;2023-03-23T15:11:51;2.47;;;2.27;;
568;SDS011;269;48.884;9.192;2023-03-23T15:14:22;2.23;;;1.80;;
568;SDS011;269;48.884;9.192;2023-03-23T15:16:51;3.83;;;1.90;;
568;SDS011;269;48.884;9.192;2023-03-23T15:19:21;2.63;;;1.83;;
568;SDS011;269;48.884;9.192;2023-03-23T15:21:52;3.30;;;2.10;;
568;SDS011;269;48.884;9.192;2023-03-23T15:24:23;4.37;;;2.10;;
568;SDS011;269;48.884;9.192;2023-03-23T15:26:53;3.30;;;2.13;;
568;SDS011;269;48.884;9.192;2023-03-23T15:29:28;2.33;;;2.20;;
568;SDS011;269;48.884;9.192;2023-03-23T15:31:55;3.80;;;2.10;;
568;SDS011;269;48.884;9.192;2023-03-23T15:34:30;4.50;;;2.00;;
568;SDS011;269;48.884;9.192;2023-03-23T15:37:00;3.83;;;2.20;;
568;SDS011;269;48.884;9.192;2023-03-23T15:39:28;2.13;;;2.03;;
568;SDS011;269;48.884;9.192;2023-03-23T15:41:56;5.63;;;1.90;;
568;SDS011;269;48.884;9.192;2023-03-23T15:44:26;2.57;;;2.00;;
568;SDS011;269;48.884;9.192;2023-03-23T15:47:03;3.30;;;2.03;;
568;SDS011;269;48.884;9.192;2023-03-23T15:49:41;2.60;;;2.40;;
568;SDS011;269;48.884;9.192;2023-03-23T15:52:09;3.70;;;2.00;;
568;SDS011;269;48.884;9.192;2023-03-23T15:54:37;2.90;;;2.60;;
568;SDS011;269;48.884;9.192;2023-03-23T15:57:05;2.10;;;1.90;;
568;SDS011;269;48.884;9.192;2023-03-23T15:59:32;4.13;;;1.90;;
568;SDS011;269;48.884;9.192;2023-03-23T16:01:59;2.60;;;2.40;;
568;SDS011;269;48.884;9.192;2023-03-23T16:04:26;2.53;;;2.10;;
568;SDS011;269;48.884;9.192;2023-03-23T16:06:56;4.80;;;2.20;;
568;SDS011;269;48.884;9.192;2023-03-23T16:09:23;2.33;;;2.10;;
568;SDS011;269;48.884;9.192;2023-03-23T16:11:50;3.47;;;1.83;;
568;SDS011;269;48.884;9.192;2023-03-23T16:14:17;2.73;;;2.10;;